sensor_id;sensor_type;location;lat;lon;timestamp;P1;durP1;ratioP1;P2;durP2;ratioP2
70247;SDS011;57641;51.416;5.506;2023-03-05T00:02:10;4.75;;;1.88;;
70247;SDS011;57641;51.416;5.506;2023-03-05T00:04:37;9.60;;;2.10;;
70247;SDS011;57641;51.416;5.506;2023-03-05T00:07:03;9.68;;;2.45;;
70247;SDS011;57641;51.416;5.506;2023-03-05T00:09:29;10.00;;;2.58;;
70247;SDS011;57641;51.416;5.506;2023-03-05T00:11:55;6.97;;;2.95;;
70247;SDS011;57641;51.416;5.506;2023-03-05T00:14:23;10.23;;;2.55;;
70247;SDS011;57641;51.416;5.506;2023-03-05T00:16:49;10.18;;;2.30;;
70247;SDS011;57641;51.416;5.506;2023-03-05T00:19:14;11.25;;;3.22;;
70247;SDS011;57641;51.416;5.506;2023-03-05T00:21:41;8.73;;;2.45;;
70247;SDS011;57641;51.416;5.506;2023-03-05T00:24:09;12.77;;;2.40;;
70247;SDS011;57641;51.416;5.506;2023-03-05T00:26:41;6.82;;;2.30;;
70247;SDS011;57641;51.416;5.506;2023-03-05T00:29:07;9.07;;;2.75;;
70247;SDS011;57641;51.416;5.506;2023-03-05T00:31:34;8.65;;;2.55;;
70247;SDS011;57641;51.416;5.506;2023-03-05T00:34:02;7.65;;;1.88;;
70247;SDS011;57641;51.416;5.506;2023-03-05T00:36:39;6.63;;;2.13;;
70247;SDS011;57641;51.416;5.506;2023-03-05T00:39:10;8.85;;;2.05;;
70247;SDS011;57641;51.416;5.506;2023-03-05T00:41:36;8.15;;;2.20;;
70247;SDS011;57641;51.416;5.506;2023-03-05T00:44:01;10.70;;;2.33;;
70247;SDS011;57641;51.416;5.506;2023-03-05T00:46:27;11.15;;;2.55;;
70247;SDS011;57641;51.416;5.506;2023-03-05T00:48:53;6.65;;;2.35;;
70247;SDS011;57641;51.416;5.506;2023-03-05T00:51:20;8.50;;;2.53;;
70247;SDS011;57641;51.416;5.506;2023-03-05T00:53:46;6.35;;;2.10;;
70247;SDS011;57641;51.416;5.506;2023-03-05T00:56:12;10.55;;;2.58;;
70247;SDS011;57641;51.416;5.506;2023-03-05T00:58:38;9.77;;;2.15;;
70247;SDS011;57641;51.416;5.506;2023-03-05T01:01:04;7.00;;;2.17;;
70247;SDS011;57641;51.416;5.506;2023-03-05T01:03:31;8.65;;;1.65;;
70247;SDS011;57641;51.416;5.506;2023-03-05T01:05:58;11.30;;;2.72;;
70247;SDS011;57641;51.416;5.506;2023-03-05T01:08:24;7.78;;;1.80;;
70247;SDS011;57641;51.416;5.506;2023-03-05T01:10:50;8.13;;;1.95;;
70247;SDS011;57641;51.416;5.506;2023-03-05T01:13:16;6.38;;;2.20;;
70247;SDS011;57641;51.416;5.506;2023-03-05T01:15:42;6.53;;;2.25;;
70247;SDS011;57641;51.416;5.506;2023-03-05T01:18:07;8.10;;;2.00;;
70247;SDS011;57641;51.416;5.506;2023-03-05T01:20:33;8.80;;;2.10;;
70247;SDS011;57641;51.416;5.506;2023-03-05T01:22:59;5.88;;;1.88;;
70247;SDS011;57641;51.416;5.506;2023-03-05T01:25:26;5.72;;;2.15;;
70247;SDS011;57641;51.416;5.506;2023-03-05T01:27:52;7.05;;;1.88;;
70247;SDS011;57641;51.416;5.506;2023-03-05T01:30:18;11.55;;;3.08;;
70247;SDS011;57641;51.416;5.506;2023-03-05T01:32:44;7.53;;;2.60;;
70247;SDS011;57641;51.416;5.506;2023-03-05T01:35:10;5.00;;;1.80;;
70247;SDS011;57641;51.416;5.506;2023-03-05T01:37:44;7.88;;;2.88;;
70247;SDS011;57641;51.416;5.506;2023-03-05T01:40:11;9.57;;;2.20;;
70247;SDS011;57641;51.416;5.506;2023-03-05T01:42:38;8.93;;;2.42;;
70247;SDS011;57641;51.416;5.506;2023-03-05T01:45:08;7.72;;;2.03;;
70247;SDS011;57641;51.416;5.506;2023-03-05T01:47:37;8.90;;;2.38;;
70247;SDS011;57641;51.416;5.506;2023-03-05T01:50:04;8.98;;;2.33;;
70247;SDS011;57641;51.416;5.506;2023-03-05T01:52:34;8.90;;;2.45;;
70247;SDS011;57641;51.416;5.506;2023-03-05T01:55:13;5.05;;;1.90;;
70247;SDS011;57641;51.416;5.506;2023-03-05T01:57:42;10.10;;;2.10;;
70247;SDS011;57641;51.416;5.506;2023-03-05T02:00:14;5.78;;;1.80;;
70247;SDS011;57641;51.416;5.506;2023-03-05T02:02:43;6.97;;;2.20;;
70247;SDS011;57641;51.416;5.506;2023-03-05T02:05:12;11.45;;;2.58;;
70247;SDS011;57641;51.416;5.506;2023-03-05T02:07:42;5.53;;;2.00;;
70247;SDS011;57641;51.416;5.506;2023-03-05T02:10:20;9.65;;;2.63;;
70247;SDS011;57641;51.416;5.506;2023-03-05T02:12:49;6.55;;;2.42;;
70247;SDS011;57641;51.416;5.506;2023-03-05T02:15:17;7.68;;;2.08;;
70247;SDS011;57641;51.416;5.506;2023-03-05T02:17:43;7.55;;;2.15;;
70247;SDS011;57641;51.416;5.506;2023-03-05T02:20:20;15.05;;;2.17;;
70247;SDS011;57641;51.416;5.506;2023-03-05T02:22:48;7.28;;;2.03;;
70247;SDS011;57641;51.416;5.506;2023-03-05T02:25:18;11.05;;;2.28;;
70247;SDS011;57641;51.416;5.506;2023-03-05T02:28:02;6.07;;;1.80;;
70247;SDS011;57641;51.416;5.506;2023-03-05T02:30:36;12.82;;;2.58;;
70247;SDS011;57641;51.416;5.506;2023-03-05T02:33:05;6.15;;;1.83;;
70247;SDS011;57641;51.416;5.506;2023-03-05T02:35:31;7.15;;;2.53;;
70247;SDS011;57641;51.416;5.506;2023-03-05T02:37:57;15.90;;;2.30;;
70247;SDS011;57641;51.416;5.506;2023-03-05T02:40:23;9.95;;;2.38;;
70247;SDS011;57641;51.416;5.506;2023-03-05T02:42:49;7.43;;;2.13;;
70247;SDS011;57641;51.416;5.506;2023-03-05T02:45:15;7.63;;;2.20;;
70247;SDS011;57641;51.416;5.506;2023-03-05T02:47:41;7.68;;;1.65;;
70247;SDS011;57641;51.416;5.506;2023-03-05T02:50:07;5.03;;;1.70;;
70247;SDS011;57641;51.416;5.506;2023-03-05T02:52:35;5.93;;;1.88;;
70247;SDS011;57641;51.416;5.506;2023-03-05T02:55:01;8.73;;;2.13;;
70247;SDS011;57641;51.416;5.506;2023-03-05T02:57:26;7.82;;;1.63;;
70247;SDS011;57641;51.416;5.506;2023-03-05T02:59:52;5.57;;;1.73;;
70247;SDS011;57641;51.416;5.506;2023-03-05T03:02:17;6.32;;;1.65;;
70247;SDS011;57641;51.416;5.506;2023-03-05T03:04:43;7.57;;;1.92;;
70247;SDS011;57641;51.416;5.506;2023-03-05T03:07:10;9.20;;;1.70;;
70247;SDS011;57641;51.416;5.506;2023-03-05T03:09:37;10.77;;;2.10;;
70247;SDS011;57641;51.416;5.506;2023-03-05T03:12:03;7.63;;;1.92;;
70247;SDS011;57641;51.416;5.506;2023-03-05T03:14:32;7.75;;;2.10;;
70247;SDS011;57641;51.416;5.506;2023-03-05T03:17:06;5.60;;;2.13;;
70247;SDS011;57641;51.416;5.506;2023-03-05T03:19:34;5.97;;;1.70;;
70247;SDS011;57641;51.416;5.506;2023-03-05T03:22:00;10.05;;;2.05;;
70247;SDS011;57641;51.416;5.506;2023-03-05T03:24:26;7.18;;;1.67;;
70247;SDS011;57641;51.416;5.506;2023-03-05T03:26:54;6.47;;;2.03;;
70247;SDS011;57641;51.416;5.506;2023-03-05T03:29:19;8.48;;;1.92;;
70247;SDS011;57641;51.416;5.506;2023-03-05T03:31:45;8.30;;;2.25;;
70247;SDS011;57641;51.416;5.506;2023-03-05T03:34:11;8.80;;;2.38;;
70247;SDS011;57641;51.416;5.506;2023-03-05T03:36:39;9.45;;;2.05;;
70247;SDS011;57641;51.416;5.506;2023-03-05T03:39:04;5.50;;;1.83;;
70247;SDS011;57641;51.416;5.506;2023-03-05T03:41:30;6.28;;;1.77;;
70247;SDS011;57641;51.416;5.506;2023-03-05T03:43:57;8.23;;;2.38;;
70247;SDS011;57641;51.416;5.506;2023-03-05T03:46:22;11.30;;;2.17;;
70247;SDS011;57641;51.416;5.506;2023-03-05T03:48:51;7.15;;;2.30;;
70247;SDS011;57641;51.416;5.506;2023-03-05T03:51:16;7.40;;;2.13;;
70247;SDS011;57641;51.416;5.506;2023-03-05T03:53:42;8.27;;;2.53;;
70247;SDS011;57641;51.416;5.506;2023-03-05T03:56:08;8.10;;;2.40;;
70247;SDS011;57641;51.416;5.506;2023-03-05T03:58:33;6.75;;;2.50;;
70247;SDS011;57641;51.416;5.506;2023-03-05T04:00:59;9.77;;;2.30;;
70247;SDS011;57641;51.416;5.506;2023-03-05T04:03:25;6.35;;;2.28;;
70247;SDS011;57641;51.416;5.506;2023-03-05T04:05:50;10.25;;;2.80;;
70247;SDS011;57641;51.416;5.506;2023-03-05T04:08:16;9.80;;;2.08;;
70247;SDS011;57641;51.416;5.506;2023-03-05T04:10:41;7.13;;;2.25;;
70247;SDS011;57641;51.416;5.506;2023-03-05T04:13:07;7.47;;;2.33;;
70247;SDS011;57641;51.416;5.506;2023-03-05T04:15:33;6.97;;;2.70;;
70247;SDS011;57641;51.416;5.506;2023-03-05T04:17:58;12.05;;;2.80;;
70247;SDS011;57641;51.416;5.506;2023-03-05T04:20:24;12.30;;;2.53;;
70247;SDS011;57641;51.416;5.506;2023-03-05T04:22:49;6.55;;;2.55;;
70247;SDS011;57641;51.416;5.506;2023-03-05T04:25:15;8.82;;;3.08;;
70247;SDS011;57641;51.416;5.506;2023-03-05T04:27:41;7.38;;;2.55;;
70247;SDS011;57641;51.416;5.506;2023-03-05T04:30:07;8.57;;;2.60;;
70247;SDS011;57641;51.416;5.506;2023-03-05T04:32:35;9.02;;;2.78;;
70247;SDS011;57641;51.416;5.506;2023-03-05T04:35:01;11.73;;;2.80;;
70247;SDS011;57641;51.416;5.506;2023-03-05T04:37:26;14.23;;;2.70;;
70247;SDS011;57641;51.416;5.506;2023-03-05T04:39:52;9.85;;;2.80;;
70247;SDS011;57641;51.416;5.506;2023-03-05T04:42:18;9.52;;;2.70;;
70247;SDS011;57641;51.416;5.506;2023-03-05T04:44:44;9.73;;;3.10;;
70247;SDS011;57641;51.416;5.506;2023-03-05T04:47:19;6.95;;;2.92;;
70247;SDS011;57641;51.416;5.506;2023-03-05T04:49:44;10.27;;;3.40;;
70247;SDS011;57641;51.416;5.506;2023-03-05T04:52:11;9.05;;;3.45;;
70247;SDS011;57641;51.416;5.506;2023-03-05T04:54:37;8.55;;;3.60;;
70247;SDS011;57641;51.416;5.506;2023-03-05T04:57:03;10.82;;;3.95;;
70247;SDS011;57641;51.416;5.506;2023-03-05T04:59:30;8.93;;;3.38;;
70247;SDS011;57641;51.416;5.506;2023-03-05T05:01:56;9.30;;;3.35;;
70247;SDS011;57641;51.416;5.506;2023-03-05T05:04:21;9.82;;;3.63;;
70247;SDS011;57641;51.416;5.506;2023-03-05T05:06:47;8.43;;;4.18;;
70247;SDS011;57641;51.416;5.506;2023-03-05T05:09:13;11.23;;;4.82;;
70247;SDS011;57641;51.416;5.506;2023-03-05T05:11:39;10.93;;;4.63;;
70247;SDS011;57641;51.416;5.506;2023-03-05T05:14:04;9.65;;;4.55;;
70247;SDS011;57641;51.416;5.506;2023-03-05T05:16:30;12.10;;;4.40;;
70247;SDS011;57641;51.416;5.506;2023-03-05T05:18:56;15.60;;;4.45;;
70247;SDS011;57641;51.416;5.506;2023-03-05T05:21:22;8.80;;;4.60;;
70247;SDS011;57641;51.416;5.506;2023-03-05T05:23:47;11.30;;;4.30;;
70247;SDS011;57641;51.416;5.506;2023-03-05T05:26:13;11.77;;;5.10;;
70247;SDS011;57641;51.416;5.506;2023-03-05T05:28:38;12.38;;;4.45;;
70247;SDS011;57641;51.416;5.506;2023-03-05T05:31:07;16.13;;;4.90;;
70247;SDS011;57641;51.416;5.506;2023-03-05T05:33:34;10.85;;;4.80;;
70247;SDS011;57641;51.416;5.506;2023-03-05T05:36:02;10.77;;;4.50;;
70247;SDS011;57641;51.416;5.506;2023-03-05T05:38:32;13.75;;;5.60;;
70247;SDS011;57641;51.416;5.506;2023-03-05T05:41:05;10.75;;;5.50;;
70247;SDS011;57641;51.416;5.506;2023-03-05T05:43:37;9.88;;;4.65;;
70247;SDS011;57641;51.416;5.506;2023-03-05T05:46:04;9.52;;;4.78;;
70247;SDS011;57641;51.416;5.506;2023-03-05T05:48:33;14.57;;;4.57;;
70247;SDS011;57641;51.416;5.506;2023-03-05T05:51:10;12.55;;;5.53;;
70247;SDS011;57641;51.416;5.506;2023-03-05T05:53:39;11.05;;;5.22;;
70247;SDS011;57641;51.416;5.506;2023-03-05T05:56:05;11.27;;;5.40;;
70247;SDS011;57641;51.416;5.506;2023-03-05T05:58:33;18.45;;;5.88;;
70247;SDS011;57641;51.416;5.506;2023-03-05T06:01:00;12.32;;;4.95;;
70247;SDS011;57641;51.416;5.506;2023-03-05T06:03:26;12.98;;;4.97;;
70247;SDS011;57641;51.416;5.506;2023-03-05T06:05:51;10.75;;;5.00;;
70247;SDS011;57641;51.416;5.506;2023-03-05T06:08:17;13.25;;;5.20;;
70247;SDS011;57641;51.416;5.506;2023-03-05T06:10:43;10.30;;;5.00;;
70247;SDS011;57641;51.416;5.506;2023-03-05T06:13:09;11.45;;;4.85;;
70247;SDS011;57641;51.416;5.506;2023-03-05T06:15:35;8.60;;;4.90;;
70247;SDS011;57641;51.416;5.506;2023-03-05T06:18:00;9.23;;;4.50;;
70247;SDS011;57641;51.416;5.506;2023-03-05T06:20:26;13.10;;;4.45;;
70247;SDS011;57641;51.416;5.506;2023-03-05T06:22:53;10.02;;;4.80;;
70247;SDS011;57641;51.416;5.506;2023-03-05T06:25:19;13.57;;;5.15;;
70247;SDS011;57641;51.416;5.506;2023-03-05T06:27:44;9.65;;;4.60;;
70247;SDS011;57641;51.416;5.506;2023-03-05T06:30:10;11.90;;;5.20;;
70247;SDS011;57641;51.416;5.506;2023-03-05T06:32:36;10.95;;;5.10;;
70247;SDS011;57641;51.416;5.506;2023-03-05T06:35:02;10.95;;;4.70;;
70247;SDS011;57641;51.416;5.506;2023-03-05T06:37:30;13.02;;;5.82;;
70247;SDS011;57641;51.416;5.506;2023-03-05T06:39:56;11.95;;;4.93;;
70247;SDS011;57641;51.416;5.506;2023-03-05T06:42:21;13.77;;;5.43;;
70247;SDS011;57641;51.416;5.506;2023-03-05T06:44:47;12.00;;;5.32;;
70247;SDS011;57641;51.416;5.506;2023-03-05T06:47:12;11.73;;;5.35;;
70247;SDS011;57641;51.416;5.506;2023-03-05T06:49:38;9.77;;;4.88;;
70247;SDS011;57641;51.416;5.506;2023-03-05T06:52:05;11.10;;;5.22;;
70247;SDS011;57641;51.416;5.506;2023-03-05T06:54:31;9.85;;;5.05;;
70247;SDS011;57641;51.416;5.506;2023-03-05T06:56:57;13.23;;;5.78;;
70247;SDS011;57641;51.416;5.506;2023-03-05T06:59:22;13.20;;;4.90;;
70247;SDS011;57641;51.416;5.506;2023-03-05T07:01:49;9.93;;;5.38;;
70247;SDS011;57641;51.416;5.506;2023-03-05T07:04:15;11.65;;;5.63;;
70247;SDS011;57641;51.416;5.506;2023-03-05T07:06:41;7.85;;;4.63;;
70247;SDS011;57641;51.416;5.506;2023-03-05T07:09:08;10.65;;;4.95;;
70247;SDS011;57641;51.416;5.506;2023-03-05T07:11:37;7.38;;;4.28;;
70247;SDS011;57641;51.416;5.506;2023-03-05T07:14:02;7.60;;;4.25;;
70247;SDS011;57641;51.416;5.506;2023-03-05T07:16:31;7.15;;;4.00;;
70247;SDS011;57641;51.416;5.506;2023-03-05T07:18:59;6.70;;;3.65;;
70247;SDS011;57641;51.416;5.506;2023-03-05T07:21:28;9.75;;;3.80;;
70247;SDS011;57641;51.416;5.506;2023-03-05T07:23:57;8.38;;;4.13;;
70247;SDS011;57641;51.416;5.506;2023-03-05T07:26:25;12.05;;;4.03;;
70247;SDS011;57641;51.416;5.506;2023-03-05T07:28:52;7.88;;;4.00;;
70247;SDS011;57641;51.416;5.506;2023-03-05T07:31:22;9.52;;;3.80;;
70247;SDS011;57641;51.416;5.506;2023-03-05T07:33:55;6.35;;;3.67;;
70247;SDS011;57641;51.416;5.506;2023-03-05T07:36:22;7.28;;;3.40;;
70247;SDS011;57641;51.416;5.506;2023-03-05T07:38:48;5.97;;;3.30;;
70247;SDS011;57641;51.416;5.506;2023-03-05T07:41:15;8.15;;;3.92;;
70247;SDS011;57641;51.416;5.506;2023-03-05T07:43:48;6.53;;;3.60;;
70247;SDS011;57641;51.416;5.506;2023-03-05T07:46:21;6.35;;;2.70;;
70247;SDS011;57641;51.416;5.506;2023-03-05T07:48:49;8.70;;;3.08;;
70247;SDS011;57641;51.416;5.506;2023-03-05T07:51:18;6.65;;;2.90;;
70247;SDS011;57641;51.416;5.506;2023-03-05T07:53:45;6.15;;;2.83;;
70247;SDS011;57641;51.416;5.506;2023-03-05T07:56:12;4.88;;;2.75;;
70247;SDS011;57641;51.416;5.506;2023-03-05T07:58:39;4.85;;;2.33;;
70247;SDS011;57641;51.416;5.506;2023-03-05T08:01:09;8.18;;;2.45;;
70247;SDS011;57641;51.416;5.506;2023-03-05T08:03:40;9.00;;;2.80;;
70247;SDS011;57641;51.416;5.506;2023-03-05T08:06:06;5.70;;;2.60;;
70247;SDS011;57641;51.416;5.506;2023-03-05T08:08:33;5.32;;;2.30;;
70247;SDS011;57641;51.416;5.506;2023-03-05T08:11:03;5.78;;;2.58;;
70247;SDS011;57641;51.416;5.506;2023-03-05T08:13:31;8.48;;;2.90;;
70247;SDS011;57641;51.416;5.506;2023-03-05T08:15:57;10.20;;;4.32;;
70247;SDS011;57641;51.416;5.506;2023-03-05T08:18:23;4.93;;;2.15;;
70247;SDS011;57641;51.416;5.506;2023-03-05T08:20:49;6.43;;;2.60;;
70247;SDS011;57641;51.416;5.506;2023-03-05T08:23:14;4.63;;;2.20;;
70247;SDS011;57641;51.416;5.506;2023-03-05T08:25:39;7.70;;;2.53;;
70247;SDS011;57641;51.416;5.506;2023-03-05T08:28:05;4.70;;;1.98;;
70247;SDS011;57641;51.416;5.506;2023-03-05T08:30:30;7.38;;;2.38;;
70247;SDS011;57641;51.416;5.506;2023-03-05T08:32:56;4.28;;;2.13;;
70247;SDS011;57641;51.416;5.506;2023-03-05T08:35:21;5.43;;;2.35;;
70247;SDS011;57641;51.416;5.506;2023-03-05T08:37:47;7.50;;;2.08;;
70247;SDS011;57641;51.416;5.506;2023-03-05T08:40:13;4.57;;;2.15;;
70247;SDS011;57641;51.416;5.506;2023-03-05T08:42:39;5.60;;;2.33;;
70247;SDS011;57641;51.416;5.506;2023-03-05T08:45:05;4.93;;;2.17;;
70247;SDS011;57641;51.416;5.506;2023-03-05T08:47:34;4.40;;;2.25;;
70247;SDS011;57641;51.416;5.506;2023-03-05T08:49:59;8.35;;;2.38;;
70247;SDS011;57641;51.416;5.506;2023-03-05T08:52:24;4.15;;;2.00;;
70247;SDS011;57641;51.416;5.506;2023-03-05T08:54:51;4.70;;;2.17;;
70247;SDS011;57641;51.416;5.506;2023-03-05T08:57:16;3.30;;;1.80;;
70247;SDS011;57641;51.416;5.506;2023-03-05T08:59:42;3.75;;;1.75;;
70247;SDS011;57641;51.416;5.506;2023-03-05T09:02:09;2.58;;;1.60;;
70247;SDS011;57641;51.416;5.506;2023-03-05T09:04:37;4.32;;;1.90;;
70247;SDS011;57641;51.416;5.506;2023-03-05T09:07:03;3.45;;;1.80;;
70247;SDS011;57641;51.416;5.506;2023-03-05T09:09:29;3.00;;;1.77;;
70247;SDS011;57641;51.416;5.506;2023-03-05T09:12:00;3.53;;;1.60;;
70247;SDS011;57641;51.416;5.506;2023-03-05T09:14:26;4.93;;;1.80;;
70247;SDS011;57641;51.416;5.506;2023-03-05T09:16:56;4.93;;;2.30;;
70247;SDS011;57641;51.416;5.506;2023-03-05T09:19:22;2.05;;;1.67;;
70247;SDS011;57641;51.416;5.506;2023-03-05T09:21:48;6.60;;;1.70;;
70247;SDS011;57641;51.416;5.506;2023-03-05T09:24:14;3.88;;;1.65;;
70247;SDS011;57641;51.416;5.506;2023-03-05T09:26:40;3.70;;;1.88;;
70247;SDS011;57641;51.416;5.506;2023-03-05T09:29:06;7.20;;;1.88;;
70247;SDS011;57641;51.416;5.506;2023-03-05T09:31:36;5.07;;;1.55;;
70247;SDS011;57641;51.416;5.506;2023-03-05T09:34:03;1.80;;;1.40;;
70247;SDS011;57641;51.416;5.506;2023-03-05T09:36:29;2.03;;;1.10;;
70247;SDS011;57641;51.416;5.506;2023-03-05T09:38:55;1.95;;;1.40;;
70247;SDS011;57641;51.416;5.506;2023-03-05T09:44:56;2.15;;;0.85;;
70247;SDS011;57641;51.416;5.506;2023-03-05T09:50:50;2.25;;;0.70;;
70247;SDS011;57641;51.416;5.506;2023-03-05T09:53:00;3.97;;;0.95;;
70247;SDS011;57641;51.416;5.506;2023-03-05T09:55:51;2.13;;;0.93;;
70247;SDS011;57641;51.416;5.506;2023-03-05T10:01:03;3.20;;;1.25;;
70247;SDS011;57641;51.416;5.506;2023-03-05T10:14:13;3.42;;;1.23;;
70247;SDS011;57641;51.416;5.506;2023-03-05T10:22:27;4.53;;;2.15;;
70247;SDS011;57641;51.416;5.506;2023-03-05T10:33:14;3.72;;;2.10;;
70247;SDS011;57641;51.416;5.506;2023-03-05T10:38:39;6.32;;;2.20;;
70247;SDS011;57641;51.416;5.506;2023-03-05T10:41:28;3.40;;;2.10;;
70247;SDS011;57641;51.416;5.506;2023-03-05T10:46:42;4.10;;;1.70;;
70247;SDS011;57641;51.416;5.506;2023-03-05T10:49:17;5.60;;;1.95;;
70247;SDS011;57641;51.416;5.506;2023-03-05T10:51:55;3.20;;;2.20;;
70247;SDS011;57641;51.416;5.506;2023-03-05T10:54:26;4.25;;;2.28;;
70247;SDS011;57641;51.416;5.506;2023-03-05T10:57:02;3.40;;;2.20;;
70247;SDS011;57641;51.416;5.506;2023-03-05T10:59:28;5.28;;;2.33;;
70247;SDS011;57641;51.416;5.506;2023-03-05T11:02:00;5.38;;;1.92;;
70247;SDS011;57641;51.416;5.506;2023-03-05T11:04:33;4.50;;;1.85;;
70247;SDS011;57641;51.416;5.506;2023-03-05T11:09:39;3.95;;;1.77;;
70247;SDS011;57641;51.416;5.506;2023-03-05T11:12:09;3.63;;;1.98;;
70247;SDS011;57641;51.416;5.506;2023-03-05T11:14:36;3.80;;;1.98;;
70247;SDS011;57641;51.416;5.506;2023-03-05T11:17:26;3.40;;;2.25;;
70247;SDS011;57641;51.416;5.506;2023-03-05T11:19:55;4.00;;;2.22;;
70247;SDS011;57641;51.416;5.506;2023-03-05T11:22:22;4.30;;;2.38;;
70247;SDS011;57641;51.416;5.506;2023-03-05T11:27:37;2.13;;;1.60;;
70247;SDS011;57641;51.416;5.506;2023-03-05T11:30:20;4.05;;;2.03;;
70247;SDS011;57641;51.416;5.506;2023-03-05T11:35:41;1.80;;;1.60;;
70247;SDS011;57641;51.416;5.506;2023-03-05T11:38:21;2.38;;;1.50;;
70247;SDS011;57641;51.416;5.506;2023-03-05T11:40:52;1.92;;;1.20;;
70247;SDS011;57641;51.416;5.506;2023-03-05T11:43:21;2.25;;;1.05;;
70247;SDS011;57641;51.416;5.506;2023-03-05T11:45:53;2.95;;;1.10;;
70247;SDS011;57641;51.416;5.506;2023-03-05T11:48:24;2.05;;;1.40;;
70247;SDS011;57641;51.416;5.506;2023-03-05T11:51:00;3.78;;;1.40;;
70247;SDS011;57641;51.416;5.506;2023-03-05T11:53:28;2.53;;;1.35;;
70247;SDS011;57641;51.416;5.506;2023-03-05T11:59:00;0.80;;;0.70;;
70247;SDS011;57641;51.416;5.506;2023-03-05T12:01:34;1.60;;;0.80;;
70247;SDS011;57641;51.416;5.506;2023-03-05T12:04:04;1.17;;;0.80;;
70247;SDS011;57641;51.416;5.506;2023-03-05T12:06:49;1.20;;;0.68;;
70247;SDS011;57641;51.416;5.506;2023-03-05T12:14:50;1.75;;;0.63;;
70247;SDS011;57641;51.416;5.506;2023-03-05T12:20:12;0.73;;;0.73;;
70247;SDS011;57641;51.416;5.506;2023-03-05T12:22:47;2.17;;;1.33;;
70247;SDS011;57641;51.416;5.506;2023-03-05T12:27:57;4.03;;;0.93;;
70247;SDS011;57641;51.416;5.506;2023-03-05T12:38:41;1.48;;;0.90;;
70247;SDS011;57641;51.416;5.506;2023-03-05T12:46:29;2.70;;;0.98;;
70247;SDS011;57641;51.416;5.506;2023-03-05T12:51:46;1.17;;;0.68;;
70247;SDS011;57641;51.416;5.506;2023-03-05T12:54:32;2.70;;;0.90;;
70247;SDS011;57641;51.416;5.506;2023-03-05T13:01:55;1.17;;;0.80;;
70247;SDS011;57641;51.416;5.506;2023-03-05T13:04:26;4.63;;;1.00;;
70247;SDS011;57641;51.416;5.506;2023-03-05T13:07:14;3.33;;;1.10;;
70247;SDS011;57641;51.416;5.506;2023-03-05T13:09:41;3.25;;;0.80;;
70247;SDS011;57641;51.416;5.506;2023-03-05T13:12:19;2.28;;;1.08;;
70247;SDS011;57641;51.416;5.506;2023-03-05T13:14:46;1.58;;;1.13;;
70247;SDS011;57641;51.416;5.506;2023-03-05T13:25:34;2.25;;;1.20;;
70247;SDS011;57641;51.416;5.506;2023-03-05T13:28:05;2.70;;;1.08;;
70247;SDS011;57641;51.416;5.506;2023-03-05T13:30:38;3.17;;;1.08;;
70247;SDS011;57641;51.416;5.506;2023-03-05T13:33:12;2.65;;;1.20;;
70247;SDS011;57641;51.416;5.506;2023-03-05T13:35:45;1.30;;;1.20;;
70247;SDS011;57641;51.416;5.506;2023-03-05T13:38:21;2.33;;;1.35;;
70247;SDS011;57641;51.416;5.506;2023-03-05T13:41:01;6.90;;;1.45;;
70247;SDS011;57641;51.416;5.506;2023-03-05T13:43:27;3.47;;;1.00;;
70247;SDS011;57641;51.416;5.506;2023-03-05T13:45:53;3.40;;;1.40;;
70247;SDS011;57641;51.416;5.506;2023-03-05T13:48:20;3.13;;;1.17;;
70247;SDS011;57641;51.416;5.506;2023-03-05T13:50:46;2.95;;;1.25;;
70247;SDS011;57641;51.416;5.506;2023-03-05T13:53:23;2.13;;;1.08;;
70247;SDS011;57641;51.416;5.506;2023-03-05T13:55:50;2.70;;;1.33;;
70247;SDS011;57641;51.416;5.506;2023-03-05T14:01:13;2.63;;;1.50;;
70247;SDS011;57641;51.416;5.506;2023-03-05T14:03:38;2.10;;;1.08;;
70247;SDS011;57641;51.416;5.506;2023-03-05T14:06:08;3.38;;;1.33;;
70247;SDS011;57641;51.416;5.506;2023-03-05T14:08:35;3.33;;;1.15;;
70247;SDS011;57641;51.416;5.506;2023-03-05T14:11:12;1.77;;;1.35;;
70247;SDS011;57641;51.416;5.506;2023-03-05T14:13:39;2.72;;;1.48;;
70247;SDS011;57641;51.416;5.506;2023-03-05T14:16:07;1.83;;;1.27;;
70247;SDS011;57641;51.416;5.506;2023-03-05T14:18:34;3.63;;;1.80;;
70247;SDS011;57641;51.416;5.506;2023-03-05T14:31:31;2.03;;;1.13;;
70247;SDS011;57641;51.416;5.506;2023-03-05T14:34:03;1.40;;;1.30;;
70247;SDS011;57641;51.416;5.506;2023-03-05T14:36:31;1.52;;;1.30;;
70247;SDS011;57641;51.416;5.506;2023-03-05T14:38:58;3.85;;;1.40;;
70247;SDS011;57641;51.416;5.506;2023-03-05T14:41:38;2.97;;;1.40;;
70247;SDS011;57641;51.416;5.506;2023-03-05T14:44:12;2.10;;;1.30;;
70247;SDS011;57641;51.416;5.506;2023-03-05T14:46:40;3.65;;;1.27;;
70247;SDS011;57641;51.416;5.506;2023-03-05T14:49:06;5.95;;;1.90;;
70247;SDS011;57641;51.416;5.506;2023-03-05T14:51:34;2.35;;;1.23;;
70247;SDS011;57641;51.416;5.506;2023-03-05T14:54:02;2.47;;;1.17;;
70247;SDS011;57641;51.416;5.506;2023-03-05T14:56:28;2.08;;;1.20;;
70247;SDS011;57641;51.416;5.506;2023-03-05T14:58:54;3.70;;;1.60;;
70247;SDS011;57641;51.416;5.506;2023-03-05T15:01:21;1.88;;;1.13;;
70247;SDS011;57641;51.416;5.506;2023-03-05T15:03:48;1.70;;;1.52;;
70247;SDS011;57641;51.416;5.506;2023-03-05T15:06:19;2.03;;;1.50;;
70247;SDS011;57641;51.416;5.506;2023-03-05T15:08:49;7.70;;;2.30;;
70247;SDS011;57641;51.416;5.506;2023-03-05T15:11:14;3.10;;;1.58;;
70247;SDS011;57641;51.416;5.506;2023-03-05T15:13:39;3.38;;;1.75;;
70247;SDS011;57641;51.416;5.506;2023-03-05T15:16:05;3.25;;;2.05;;
70247;SDS011;57641;51.416;5.506;2023-03-05T15:18:32;2.50;;;1.50;;
70247;SDS011;57641;51.416;5.506;2023-03-05T15:21:00;2.92;;;1.85;;
70247;SDS011;57641;51.416;5.506;2023-03-05T15:23:26;2.60;;;1.55;;
70247;SDS011;57641;51.416;5.506;2023-03-05T15:25:58;2.00;;;1.77;;
70247;SDS011;57641;51.416;5.506;2023-03-05T15:28:27;3.75;;;1.65;;
70247;SDS011;57641;51.416;5.506;2023-03-05T15:30:53;3.58;;;1.75;;
70247;SDS011;57641;51.416;5.506;2023-03-05T15:33:18;2.90;;;1.88;;
70247;SDS011;57641;51.416;5.506;2023-03-05T15:35:43;3.78;;;1.88;;
70247;SDS011;57641;51.416;5.506;2023-03-05T15:38:09;3.10;;;2.05;;
70247;SDS011;57641;51.416;5.506;2023-03-05T15:40:39;3.85;;;3.20;;
70247;SDS011;57641;51.416;5.506;2023-03-05T15:43:04;2.85;;;2.13;;
70247;SDS011;57641;51.416;5.506;2023-03-05T15:45:30;4.38;;;2.40;;
70247;SDS011;57641;51.416;5.506;2023-03-05T15:47:55;2.70;;;2.15;;
70247;SDS011;57641;51.416;5.506;2023-03-05T15:50:21;2.78;;;2.13;;
70247;SDS011;57641;51.416;5.506;2023-03-05T15:52:46;3.03;;;2.30;;
70247;SDS011;57641;51.416;5.506;2023-03-05T15:55:13;3.17;;;2.10;;
70247;SDS011;57641;51.416;5.506;2023-03-05T15:57:42;4.95;;;2.50;;
70247;SDS011;57641;51.416;5.506;2023-03-05T16:00:09;3.53;;;2.83;;
70247;SDS011;57641;51.416;5.506;2023-03-05T16:02:36;2.85;;;2.00;;
70247;SDS011;57641;51.416;5.506;2023-03-05T16:05:02;3.38;;;2.33;;
70247;SDS011;57641;51.416;5.506;2023-03-05T16:07:34;4.20;;;2.30;;
70247;SDS011;57641;51.416;5.506;2023-03-05T16:10:10;3.97;;;2.65;;
70247;SDS011;57641;51.416;5.506;2023-03-05T16:12:50;3.03;;;2.10;;
70247;SDS011;57641;51.416;5.506;2023-03-05T16:15:20;3.22;;;2.53;;
70247;SDS011;57641;51.416;5.506;2023-03-05T16:17:51;5.43;;;2.80;;
70247;SDS011;57641;51.416;5.506;2023-03-05T16:20:21;3.40;;;2.40;;
70247;SDS011;57641;51.416;5.506;2023-03-05T16:22:51;11.20;;;3.30;;
70247;SDS011;57641;51.416;5.506;2023-03-05T16:25:17;3.85;;;2.55;;
70247;SDS011;57641;51.416;5.506;2023-03-05T16:27:42;5.47;;;3.90;;
70247;SDS011;57641;51.416;5.506;2023-03-05T16:30:08;8.20;;;5.20;;
70247;SDS011;57641;51.416;5.506;2023-03-05T16:32:35;5.30;;;3.60;;
70247;SDS011;57641;51.416;5.506;2023-03-05T16:35:02;5.72;;;3.58;;
70247;SDS011;57641;51.416;5.506;2023-03-05T16:37:28;8.80;;;3.60;;